sensor_id;sensor_type;location;lat;lon;timestamp;P1;durP1;ratioP1;P2;durP2;ratioP2
35364;SDS011;21464;48.112;11.530;2023-05-07T00:00:28;10.75;;;8.45;;
35364;SDS011;21464;48.112;11.530;2023-05-07T00:02:55;9.00;;;8.13;;
35364;SDS011;21464;48.112;11.530;2023-05-07T00:05:21;11.52;;;8.68;;
35364;SDS011;21464;48.112;11.530;2023-05-07T00:07:48;9.90;;;9.00;;
35364;SDS011;21464;48.112;11.530;2023-05-07T00:10:14;8.68;;;7.88;;
35364;SDS011;21464;48.112;11.530;2023-05-07T00:12:40;9.98;;;8.63;;
35364;SDS011;21464;48.112;11.530;2023-05-07T00:15:07;10.77;;;9.75;;
35364;SDS011;21464;48.112;11.530;2023-05-07T00:17:33;10.18;;;8.70;;
35364;SDS011;21464;48.112;11.530;2023-05-07T00:19:59;9.77;;;8.82;;
35364;SDS011;21464;48.112;11.530;2023-05-07T00:22:26;10.68;;;9.65;;
35364;SDS011;21464;48.112;11.530;2023-05-07T00:24:52;9.32;;;8.32;;
35364;SDS011;21464;48.112;11.530;2023-05-07T00:27:18;9.60;;;8.70;;
35364;SDS011;21464;48.112;11.530;2023-05-07T00:29:44;9.55;;;8.55;;
35364;SDS011;21464;48.112;11.530;2023-05-07T00:32:11;10.32;;;8.73;;
35364;SDS011;21464;48.112;11.530;2023-05-07T00:34:37;9.57;;;8.60;;
35364;SDS011;21464;48.112;11.530;2023-05-07T00:37:05;9.55;;;8.75;;
35364;SDS011;21464;48.112;11.530;2023-05-07T00:39:33;9.68;;;8.68;;
35364;SDS011;21464;48.112;11.530;2023-05-07T00:41:59;9.70;;;8.80;;
35364;SDS011;21464;48.112;11.530;2023-05-07T00:44:26;9.98;;;8.30;;
35364;SDS011;21464;48.112;11.530;2023-05-07T00:46:53;8.18;;;7.47;;
35364;SDS011;21464;48.112;11.530;2023-05-07T00:49:19;8.90;;;7.97;;
35364;SDS011;21464;48.112;11.530;2023-05-07T00:51:46;9.38;;;8.35;;
35364;SDS011;21464;48.112;11.530;2023-05-07T00:54:13;11.70;;;8.60;;
35364;SDS011;21464;48.112;11.530;2023-05-07T00:56:40;8.18;;;7.25;;
35364;SDS011;21464;48.112;11.530;2023-05-07T00:59:06;8.75;;;7.95;;
35364;SDS011;21464;48.112;11.530;2023-05-07T01:01:32;7.63;;;6.93;;
35364;SDS011;21464;48.112;11.530;2023-05-07T01:03:59;8.77;;;7.45;;
35364;SDS011;21464;48.112;11.530;2023-05-07T01:06:25;8.68;;;7.55;;
35364;SDS011;21464;48.112;11.530;2023-05-07T01:08:53;8.80;;;7.90;;
35364;SDS011;21464;48.112;11.530;2023-05-07T01:11:22;8.70;;;7.72;;
35364;SDS011;21464;48.112;11.530;2023-05-07T01:13:49;8.20;;;7.35;;
35364;SDS011;21464;48.112;11.530;2023-05-07T01:16:16;8.90;;;7.55;;
35364;SDS011;21464;48.112;11.530;2023-05-07T01:18:42;9.13;;;8.30;;
35364;SDS011;21464;48.112;11.530;2023-05-07T01:21:08;9.63;;;8.55;;
35364;SDS011;21464;48.112;11.530;2023-05-07T01:23:36;8.65;;;7.93;;
35364;SDS011;21464;48.112;11.530;2023-05-07T01:26:03;9.40;;;8.02;;
35364;SDS011;21464;48.112;11.530;2023-05-07T01:28:31;8.93;;;8.02;;
35364;SDS011;21464;48.112;11.530;2023-05-07T01:31:03;9.07;;;8.25;;
35364;SDS011;21464;48.112;11.530;2023-05-07T01:33:31;9.43;;;8.57;;
35364;SDS011;21464;48.112;11.530;2023-05-07T01:35:59;8.82;;;7.88;;
35364;SDS011;21464;48.112;11.530;2023-05-07T01:38:28;9.60;;;7.80;;
35364;SDS011;21464;48.112;11.530;2023-05-07T01:40:54;8.88;;;8.07;;
35364;SDS011;21464;48.112;11.530;2023-05-07T01:43:21;9.05;;;8.13;;
35364;SDS011;21464;48.112;11.530;2023-05-07T01:45:47;8.77;;;7.97;;
35364;SDS011;21464;48.112;11.530;2023-05-07T01:48:15;8.57;;;7.78;;
35364;SDS011;21464;48.112;11.530;2023-05-07T01:50:42;8.13;;;7.18;;
35364;SDS011;21464;48.112;11.530;2023-05-07T01:53:08;10.20;;;8.00;;
35364;SDS011;21464;48.112;11.530;2023-05-07T01:55:35;7.82;;;7.07;;
35364;SDS011;21464;48.112;11.530;2023-05-07T01:58:03;8.65;;;7.85;;
35364;SDS011;21464;48.112;11.530;2023-05-07T02:00:30;7.70;;;7.10;;
35364;SDS011;21464;48.112;11.530;2023-05-07T02:02:57;8.10;;;7.40;;
35364;SDS011;21464;48.112;11.530;2023-05-07T02:05:32;9.35;;;7.47;;
35364;SDS011;21464;48.112;11.530;2023-05-07T02:08:03;8.52;;;7.60;;
35364;SDS011;21464;48.112;11.530;2023-05-07T02:10:31;8.20;;;7.00;;
35364;SDS011;21464;48.112;11.530;2023-05-07T02:12:58;7.60;;;6.90;;
35364;SDS011;21464;48.112;11.530;2023-05-07T02:15:27;11.02;;;7.40;;
35364;SDS011;21464;48.112;11.530;2023-05-07T02:18:12;8.00;;;7.20;;
35364;SDS011;21464;48.112;11.530;2023-05-07T02:20:39;8.60;;;7.38;;
35364;SDS011;21464;48.112;11.530;2023-05-07T02:23:05;8.20;;;7.50;;
35364;SDS011;21464;48.112;11.530;2023-05-07T02:25:31;9.05;;;7.20;;
35364;SDS011;21464;48.112;11.530;2023-05-07T02:27:58;8.30;;;7.60;;
35364;SDS011;21464;48.112;11.530;2023-05-07T02:30:37;8.05;;;7.38;;
35364;SDS011;21464;48.112;11.530;2023-05-07T02:33:03;8.23;;;7.28;;
35364;SDS011;21464;48.112;11.530;2023-05-07T02:35:29;8.23;;;7.40;;
35364;SDS011;21464;48.112;11.530;2023-05-07T02:37:56;7.82;;;7.13;;
35364;SDS011;21464;48.112;11.530;2023-05-07T02:40:24;8.73;;;7.43;;
35364;SDS011;21464;48.112;11.530;2023-05-07T02:42:51;7.80;;;7.10;;
35364;SDS011;21464;48.112;11.530;2023-05-07T02:45:17;7.53;;;6.82;;
35364;SDS011;21464;48.112;11.530;2023-05-07T02:47:45;7.57;;;6.78;;
35364;SDS011;21464;48.112;11.530;2023-05-07T02:50:12;7.43;;;6.78;;
35364;SDS011;21464;48.112;11.530;2023-05-07T02:52:38;8.20;;;7.50;;
35364;SDS011;21464;48.112;11.530;2023-05-07T02:55:05;7.63;;;7.00;;
35364;SDS011;21464;48.112;11.530;2023-05-07T02:57:31;6.57;;;5.97;;
35364;SDS011;21464;48.112;11.530;2023-05-07T02:59:58;7.40;;;6.78;;
35364;SDS011;21464;48.112;11.530;2023-05-07T03:02:24;7.07;;;6.35;;
35364;SDS011;21464;48.112;11.530;2023-05-07T03:04:51;7.15;;;6.45;;
35364;SDS011;21464;48.112;11.530;2023-05-07T03:07:18;7.07;;;6.35;;
35364;SDS011;21464;48.112;11.530;2023-05-07T03:09:44;7.47;;;6.85;;
35364;SDS011;21464;48.112;11.530;2023-05-07T03:12:11;7.60;;;6.90;;
35364;SDS011;21464;48.112;11.530;2023-05-07T03:14:37;7.30;;;6.70;;
35364;SDS011;21464;48.112;11.530;2023-05-07T03:17:03;8.18;;;6.70;;
35364;SDS011;21464;48.112;11.530;2023-05-07T03:19:30;9.23;;;6.30;;
35364;SDS011;21464;48.112;11.530;2023-05-07T03:21:57;7.30;;;6.43;;
35364;SDS011;21464;48.112;11.530;2023-05-07T03:24:23;6.75;;;6.18;;
35364;SDS011;21464;48.112;11.530;2023-05-07T03:26:49;7.50;;;6.90;;
35364;SDS011;21464;48.112;11.530;2023-05-07T03:29:15;7.28;;;6.57;;
35364;SDS011;21464;48.112;11.530;2023-05-07T03:31:42;7.25;;;6.63;;
35364;SDS011;21464;48.112;11.530;2023-05-07T03:34:08;7.13;;;6.43;;
35364;SDS011;21464;48.112;11.530;2023-05-07T03:36:34;7.03;;;6.20;;
35364;SDS011;21464;48.112;11.530;2023-05-07T03:39:00;7.00;;;6.40;;
35364;SDS011;21464;48.112;11.530;2023-05-07T03:41:35;7.68;;;6.88;;
35364;SDS011;21464;48.112;11.530;2023-05-07T03:44:01;6.40;;;5.90;;
35364;SDS011;21464;48.112;11.530;2023-05-07T03:46:27;7.22;;;6.63;;
35364;SDS011;21464;48.112;11.530;2023-05-07T03:48:54;7.28;;;6.68;;
35364;SDS011;21464;48.112;11.530;2023-05-07T03:51:20;6.97;;;6.38;;
35364;SDS011;21464;48.112;11.530;2023-05-07T03:53:47;6.70;;;6.10;;
35364;SDS011;21464;48.112;11.530;2023-05-07T03:56:14;7.18;;;6.57;;
35364;SDS011;21464;48.112;11.530;2023-05-07T03:58:41;6.40;;;5.90;;
35364;SDS011;21464;48.112;11.530;2023-05-07T04:01:09;8.23;;;6.10;;
35364;SDS011;21464;48.112;11.530;2023-05-07T04:03:36;6.38;;;5.78;;
35364;SDS011;21464;48.112;11.530;2023-05-07T04:06:03;6.43;;;5.88;;
35364;SDS011;21464;48.112;11.530;2023-05-07T04:08:30;7.05;;;6.35;;
35364;SDS011;21464;48.112;11.530;2023-05-07T04:10:58;6.32;;;5.80;;
35364;SDS011;21464;48.112;11.530;2023-05-07T04:13:27;6.90;;;6.25;;
35364;SDS011;21464;48.112;11.530;2023-05-07T04:15:55;6.65;;;6.10;;
35364;SDS011;21464;48.112;11.530;2023-05-07T04:18:21;7.05;;;6.40;;
35364;SDS011;21464;48.112;11.530;2023-05-07T04:20:49;7.40;;;6.70;;
35364;SDS011;21464;48.112;11.530;2023-05-07T04:23:15;6.82;;;6.20;;
35364;SDS011;21464;48.112;11.530;2023-05-07T04:25:42;7.72;;;7.03;;
35364;SDS011;21464;48.112;11.530;2023-05-07T04:28:16;7.88;;;7.07;;
35364;SDS011;21464;48.112;11.530;2023-05-07T04:30:43;8.00;;;7.18;;
35364;SDS011;21464;48.112;11.530;2023-05-07T04:33:10;7.63;;;6.93;;
35364;SDS011;21464;48.112;11.530;2023-05-07T04:35:38;7.45;;;6.57;;
35364;SDS011;21464;48.112;11.530;2023-05-07T04:38:05;7.32;;;6.80;;
35364;SDS011;21464;48.112;11.530;2023-05-07T04:40:32;8.02;;;7.22;;
35364;SDS011;21464;48.112;11.530;2023-05-07T04:43:00;7.60;;;6.50;;
35364;SDS011;21464;48.112;11.530;2023-05-07T04:45:30;7.28;;;6.38;;
35364;SDS011;21464;48.112;11.530;2023-05-07T04:47:56;11.48;;;9.95;;
35364;SDS011;21464;48.112;11.530;2023-05-07T04:50:22;8.93;;;7.75;;
35364;SDS011;21464;48.112;11.530;2023-05-07T04:52:52;7.90;;;7.20;;
35364;SDS011;21464;48.112;11.530;2023-05-07T04:55:18;9.10;;;7.28;;
35364;SDS011;21464;48.112;11.530;2023-05-07T04:57:45;7.88;;;7.18;;
35364;SDS011;21464;48.112;11.530;2023-05-07T05:00:13;7.63;;;7.00;;
35364;SDS011;21464;48.112;11.530;2023-05-07T05:02:42;7.90;;;7.20;;
35364;SDS011;21464;48.112;11.530;2023-05-07T05:05:08;8.02;;;7.30;;
35364;SDS011;21464;48.112;11.530;2023-05-07T05:07:35;8.00;;;7.30;;
35364;SDS011;21464;48.112;11.530;2023-05-07T05:10:02;7.57;;;6.90;;
35364;SDS011;21464;48.112;11.530;2023-05-07T05:12:32;9.25;;;8.30;;
35364;SDS011;21464;48.112;11.530;2023-05-07T05:15:00;7.78;;;7.13;;
35364;SDS011;21464;48.112;11.530;2023-05-07T05:17:26;8.95;;;8.05;;
35364;SDS011;21464;48.112;11.530;2023-05-07T05:19:52;7.68;;;6.97;;
35364;SDS011;21464;48.112;11.530;2023-05-07T05:22:19;7.78;;;7.07;;
35364;SDS011;21464;48.112;11.530;2023-05-07T05:24:45;11.57;;;8.45;;
35364;SDS011;21464;48.112;11.530;2023-05-07T05:27:11;9.10;;;8.27;;
35364;SDS011;21464;48.112;11.530;2023-05-07T05:29:38;8.75;;;7.95;;
35364;SDS011;21464;48.112;11.530;2023-05-07T05:32:04;7.32;;;6.72;;
35364;SDS011;21464;48.112;11.530;2023-05-07T05:34:31;8.35;;;7.65;;
35364;SDS011;21464;48.112;11.530;2023-05-07T05:36:59;7.47;;;6.88;;
35364;SDS011;21464;48.112;11.530;2023-05-07T05:39:25;7.25;;;6.55;;
35364;SDS011;21464;48.112;11.530;2023-05-07T05:41:51;7.20;;;6.55;;
35364;SDS011;21464;48.112;11.530;2023-05-07T05:44:18;7.25;;;5.82;;
35364;SDS011;21464;48.112;11.530;2023-05-07T05:46:44;6.95;;;6.38;;
35364;SDS011;21464;48.112;11.530;2023-05-07T05:49:10;6.45;;;5.82;;
35364;SDS011;21464;48.112;11.530;2023-05-07T05:51:38;6.68;;;6.10;;
35364;SDS011;21464;48.112;11.530;2023-05-07T05:54:04;6.60;;;6.13;;
35364;SDS011;21464;48.112;11.530;2023-05-07T05:56:31;7.55;;;6.45;;
35364;SDS011;21464;48.112;11.530;2023-05-07T05:58:58;7.47;;;6.85;;
35364;SDS011;21464;48.112;11.530;2023-05-07T06:01:24;8.45;;;7.40;;
35364;SDS011;21464;48.112;11.530;2023-05-07T06:03:52;6.93;;;6.32;;
35364;SDS011;21464;48.112;11.530;2023-05-07T06:06:18;7.45;;;6.75;;
35364;SDS011;21464;48.112;11.530;2023-05-07T06:08:45;6.82;;;6.15;;
35364;SDS011;21464;48.112;11.530;2023-05-07T06:11:16;9.10;;;5.70;;
35364;SDS011;21464;48.112;11.530;2023-05-07T06:13:45;10.40;;;6.88;;
35364;SDS011;21464;48.112;11.530;2023-05-07T06:16:11;6.38;;;5.80;;
35364;SDS011;21464;48.112;11.530;2023-05-07T06:18:38;6.88;;;6.18;;
35364;SDS011;21464;48.112;11.530;2023-05-07T06:21:04;7.32;;;6.72;;
35364;SDS011;21464;48.112;11.530;2023-05-07T06:23:33;6.97;;;6.10;;
35364;SDS011;21464;48.112;11.530;2023-05-07T06:26:00;9.10;;;8.10;;
35364;SDS011;21464;48.112;11.530;2023-05-07T06:28:32;7.10;;;6.53;;
35364;SDS011;21464;48.112;11.530;2023-05-07T06:31:13;8.05;;;5.97;;
35364;SDS011;21464;48.112;11.530;2023-05-07T06:33:56;6.22;;;5.72;;
35364;SDS011;21464;48.112;11.530;2023-05-07T06:36:27;7.80;;;5.75;;
35364;SDS011;21464;48.112;11.530;2023-05-07T06:38:56;6.72;;;6.10;;
35364;SDS011;21464;48.112;11.530;2023-05-07T06:41:23;5.78;;;5.28;;
35364;SDS011;21464;48.112;11.530;2023-05-07T06:43:49;6.07;;;5.57;;
35364;SDS011;21464;48.112;11.530;2023-05-07T06:46:38;7.22;;;5.53;;
35364;SDS011;21464;48.112;11.530;2023-05-07T06:49:06;5.60;;;5.10;;
35364;SDS011;21464;48.112;11.530;2023-05-07T06:51:32;5.40;;;5.00;;
35364;SDS011;21464;48.112;11.530;2023-05-07T06:54:02;6.72;;;6.13;;
35364;SDS011;21464;48.112;11.530;2023-05-07T06:56:31;6.05;;;5.55;;
35364;SDS011;21464;48.112;11.530;2023-05-07T06:58:59;6.53;;;5.93;;
35364;SDS011;21464;48.112;11.530;2023-05-07T07:01:26;7.55;;;6.85;;
35364;SDS011;21464;48.112;11.530;2023-05-07T07:03:52;5.55;;;5.10;;
35364;SDS011;21464;48.112;11.530;2023-05-07T07:06:20;8.20;;;7.18;;
35364;SDS011;21464;48.112;11.530;2023-05-07T07:08:46;7.05;;;6.18;;
35364;SDS011;21464;48.112;11.530;2023-05-07T07:11:15;6.78;;;5.50;;
35364;SDS011;21464;48.112;11.530;2023-05-07T07:13:42;6.90;;;5.68;;
35364;SDS011;21464;48.112;11.530;2023-05-07T07:16:09;6.07;;;5.50;;
35364;SDS011;21464;48.112;11.530;2023-05-07T07:18:35;5.95;;;5.45;;
35364;SDS011;21464;48.112;11.530;2023-05-07T07:21:02;6.10;;;5.00;;
35364;SDS011;21464;48.112;11.530;2023-05-07T07:23:28;5.00;;;4.60;;
35364;SDS011;21464;48.112;11.530;2023-05-07T07:25:54;5.28;;;4.68;;
35364;SDS011;21464;48.112;11.530;2023-05-07T07:28:21;6.10;;;5.00;;
35364;SDS011;21464;48.112;11.530;2023-05-07T07:30:48;4.80;;;4.40;;
35364;SDS011;21464;48.112;11.530;2023-05-07T07:33:16;5.05;;;4.18;;
35364;SDS011;21464;48.112;11.530;2023-05-07T07:35:43;5.63;;;5.15;;
35364;SDS011;21464;48.112;11.530;2023-05-07T07:38:10;5.15;;;4.63;;
35364;SDS011;21464;48.112;11.530;2023-05-07T07:40:36;5.97;;;5.30;;
35364;SDS011;21464;48.112;11.530;2023-05-07T07:43:04;4.80;;;4.35;;
35364;SDS011;21464;48.112;11.530;2023-05-07T07:45:31;4.68;;;4.28;;
35364;SDS011;21464;48.112;11.530;2023-05-07T07:48:01;5.38;;;4.97;;
35364;SDS011;21464;48.112;11.530;2023-05-07T07:50:28;6.45;;;5.78;;
35364;SDS011;21464;48.112;11.530;2023-05-07T07:52:56;6.32;;;5.32;;
35364;SDS011;21464;48.112;11.530;2023-05-07T07:55:23;5.55;;;5.05;;
35364;SDS011;21464;48.112;11.530;2023-05-07T07:57:52;7.85;;;6.68;;
35364;SDS011;21464;48.112;11.530;2023-05-07T08:00:19;10.02;;;8.18;;
35364;SDS011;21464;48.112;11.530;2023-05-07T08:02:52;5.97;;;5.45;;
35364;SDS011;21464;48.112;11.530;2023-05-07T08:05:24;6.13;;;5.50;;
35364;SDS011;21464;48.112;11.530;2023-05-07T08:07:51;6.18;;;5.53;;
35364;SDS011;21464;48.112;11.530;2023-05-07T08:10:21;6.30;;;5.38;;
35364;SDS011;21464;48.112;11.530;2023-05-07T08:12:52;5.95;;;5.38;;
35364;SDS011;21464;48.112;11.530;2023-05-07T08:15:19;6.25;;;5.07;;
35364;SDS011;21464;48.112;11.530;2023-05-07T08:17:45;5.57;;;5.03;;
35364;SDS011;21464;48.112;11.530;2023-05-07T08:20:12;4.93;;;4.43;;
35364;SDS011;21464;48.112;11.530;2023-05-07T08:22:39;6.25;;;5.60;;
35364;SDS011;21464;48.112;11.530;2023-05-07T08:25:06;8.30;;;5.88;;
35364;SDS011;21464;48.112;11.530;2023-05-07T08:27:33;4.60;;;4.20;;
35364;SDS011;21464;48.112;11.530;2023-05-07T08:29:59;4.47;;;4.07;;
35364;SDS011;21464;48.112;11.530;2023-05-07T08:32:25;4.63;;;4.22;;
35364;SDS011;21464;48.112;11.530;2023-05-07T08:34:53;5.72;;;4.90;;
35364;SDS011;21464;48.112;11.530;2023-05-07T08:37:19;5.88;;;5.28;;
35364;SDS011;21464;48.112;11.530;2023-05-07T08:39:46;8.43;;;7.28;;
35364;SDS011;21464;48.112;11.530;2023-05-07T08:42:18;6.30;;;5.70;;
35364;SDS011;21464;48.112;11.530;2023-05-07T08:44:46;5.43;;;4.93;;
35364;SDS011;21464;48.112;11.530;2023-05-07T08:47:14;6.13;;;5.47;;
35364;SDS011;21464;48.112;11.530;2023-05-07T08:49:41;5.25;;;4.75;;
35364;SDS011;21464;48.112;11.530;2023-05-07T08:52:07;5.70;;;5.10;;
35364;SDS011;21464;48.112;11.530;2023-05-07T08:54:34;5.38;;;4.97;;
35364;SDS011;21464;48.112;11.530;2023-05-07T08:57:03;7.93;;;7.20;;
35364;SDS011;21464;48.112;11.530;2023-05-07T08:59:32;5.50;;;5.07;;
35364;SDS011;21464;48.112;11.530;2023-05-07T09:01:59;5.35;;;4.85;;
35364;SDS011;21464;48.112;11.530;2023-05-07T09:04:26;7.07;;;6.10;;
35364;SDS011;21464;48.112;11.530;2023-05-07T09:06:53;6.78;;;5.80;;
35364;SDS011;21464;48.112;11.530;2023-05-07T09:09:21;8.50;;;7.80;;
35364;SDS011;21464;48.112;11.530;2023-05-07T09:11:49;4.65;;;4.25;;
35364;SDS011;21464;48.112;11.530;2023-05-07T09:14:22;4.70;;;4.32;;
35364;SDS011;21464;48.112;11.530;2023-05-07T09:16:51;4.50;;;4.10;;
35364;SDS011;21464;48.112;11.530;2023-05-07T09:19:25;5.20;;;4.57;;
35364;SDS011;21464;48.112;11.530;2023-05-07T09:24:29;4.63;;;4.05;;
35364;SDS011;21464;48.112;11.530;2023-05-07T09:27:02;19.73;;;15.52;;
35364;SDS011;21464;48.112;11.530;2023-05-07T09:29:30;9.93;;;8.52;;
35364;SDS011;21464;48.112;11.530;2023-05-07T09:32:02;4.50;;;4.10;;
35364;SDS011;21464;48.112;11.530;2023-05-07T09:34:32;8.88;;;7.10;;
35364;SDS011;21464;48.112;11.530;2023-05-07T09:37:03;4.50;;;3.95;;
35364;SDS011;21464;48.112;11.530;2023-05-07T09:39:43;4.03;;;3.63;;
35364;SDS011;21464;48.112;11.530;2023-05-07T09:42:12;6.15;;;4.60;;
35364;SDS011;21464;48.112;11.530;2023-05-07T09:44:41;4.00;;;3.50;;
35364;SDS011;21464;48.112;11.530;2023-05-07T09:47:13;4.18;;;3.78;;
35364;SDS011;21464;48.112;11.530;2023-05-07T09:49:46;5.25;;;4.13;;
35364;SDS011;21464;48.112;11.530;2023-05-07T09:52:15;4.07;;;3.67;;
35364;SDS011;21464;48.112;11.530;2023-05-07T09:54:48;3.85;;;3.55;;
35364;SDS011;21464;48.112;11.530;2023-05-07T09:57:17;4.13;;;3.78;;
35364;SDS011;21464;48.112;11.530;2023-05-07T09:59:48;6.03;;;3.92;;
35364;SDS011;21464;48.112;11.530;2023-05-07T10:02:18;3.40;;;3.05;;
35364;SDS011;21464;48.112;11.530;2023-05-07T10:04:48;4.68;;;4.28;;
35364;SDS011;21464;48.112;11.530;2023-05-07T10:07:18;3.92;;;3.53;;
35364;SDS011;21464;48.112;11.530;2023-05-07T10:09:46;5.47;;;3.90;;
35364;SDS011;21464;48.112;11.530;2023-05-07T10:12:22;4.68;;;4.13;;
35364;SDS011;21464;48.112;11.530;2023-05-07T10:14:49;3.28;;;3.00;;
35364;SDS011;21464;48.112;11.530;2023-05-07T10:17:17;3.15;;;2.95;;
35364;SDS011;21464;48.112;11.530;2023-05-07T10:19:44;3.15;;;2.90;;
35364;SDS011;21464;48.112;11.530;2023-05-07T10:22:11;3.55;;;3.25;;
35364;SDS011;21464;48.112;11.530;2023-05-07T10:24:43;3.83;;;3.22;;
35364;SDS011;21464;48.112;11.530;2023-05-07T10:27:15;4.38;;;3.50;;
35364;SDS011;21464;48.112;11.530;2023-05-07T10:32:40;3.97;;;3.50;;
35364;SDS011;21464;48.112;11.530;2023-05-07T10:35:17;3.60;;;3.30;;
35364;SDS011;21464;48.112;11.530;2023-05-07T10:37:49;3.67;;;3.38;;
35364;SDS011;21464;48.112;11.530;2023-05-07T10:40:16;5.00;;;3.90;;
35364;SDS011;21464;48.112;11.530;2023-05-07T10:42:53;5.18;;;4.72;;
35364;SDS011;21464;48.112;11.530;2023-05-07T10:45:21;11.98;;;7.40;;
35364;SDS011;21464;48.112;11.530;2023-05-07T10:48:09;7.43;;;6.82;;
35364;SDS011;21464;48.112;11.530;2023-05-07T10:50:41;4.40;;;4.00;;
35364;SDS011;21464;48.112;11.530;2023-05-07T10:58:47;4.97;;;3.50;;
35364;SDS011;21464;48.112;11.530;2023-05-07T11:04:27;11.55;;;9.77;;
35364;SDS011;21464;48.112;11.530;2023-05-07T11:15:09;4.20;;;3.63;;
35364;SDS011;21464;48.112;11.530;2023-05-07T11:17:54;3.92;;;3.60;;
35364;SDS011;21464;48.112;11.530;2023-05-07T11:26:07;3.50;;;3.20;;
35364;SDS011;21464;48.112;11.530;2023-05-07T11:28:38;3.33;;;3.03;;
35364;SDS011;21464;48.112;11.530;2023-05-07T11:31:06;4.35;;;3.30;;
35364;SDS011;21464;48.112;11.530;2023-05-07T11:33:34;3.80;;;3.42;;
35364;SDS011;21464;48.112;11.530;2023-05-07T11:36:04;4.15;;;3.72;;
35364;SDS011;21464;48.112;11.530;2023-05-07T11:38:35;3.72;;;3.40;;
35364;SDS011;21464;48.112;11.530;2023-05-07T11:41:02;4.13;;;3.60;;
35364;SDS011;21464;48.112;11.530;2023-05-07T11:43:31;3.80;;;3.50;;
35364;SDS011;21464;48.112;11.530;2023-05-07T11:46:04;3.83;;;3.40;;
35364;SDS011;21464;48.112;11.530;2023-05-07T11:48:32;4.55;;;3.78;;
35364;SDS011;21464;48.112;11.530;2023-05-07T11:53:26;4.57;;;4.10;;
35364;SDS011;21464;48.112;11.530;2023-05-07T11:55:54;6.82;;;5.75;;
35364;SDS011;21464;48.112;11.530;2023-05-07T11:58:22;10.85;;;7.25;;
35364;SDS011;21464;48.112;11.530;2023-05-07T12:00:52;6.88;;;4.35;;
35364;SDS011;21464;48.112;11.530;2023-05-07T12:03:19;4.88;;;4.43;;
35364;SDS011;21464;48.112;11.530;2023-05-07T12:05:46;5.10;;;4.70;;
35364;SDS011;21464;48.112;11.530;2023-05-07T12:08:17;4.90;;;4.50;;
35364;SDS011;21464;48.112;11.530;2023-05-07T12:10:44;4.78;;;4.28;;
35364;SDS011;21464;48.112;11.530;2023-05-07T12:13:18;4.38;;;3.97;;
35364;SDS011;21464;48.112;11.530;2023-05-07T12:15:45;4.30;;;3.90;;
35364;SDS011;21464;48.112;11.530;2023-05-07T12:18:12;5.20;;;4.10;;
35364;SDS011;21464;48.112;11.530;2023-05-07T12:20:38;4.43;;;4.03;;
35364;SDS011;21464;48.112;11.530;2023-05-07T12:23:05;4.63;;;4.20;;
35364;SDS011;21464;48.112;11.530;2023-05-07T12:25:31;5.30;;;4.15;;
35364;SDS011;21464;48.112;11.530;2023-05-07T12:28:01;5.78;;;3.60;;
35364;SDS011;21464;48.112;11.530;2023-05-07T12:30:27;5.07;;;4.68;;
35364;SDS011;21464;48.112;11.530;2023-05-07T12:32:54;5.18;;;4.50;;
35364;SDS011;21464;48.112;11.530;2023-05-07T12:35:28;4.10;;;3.80;;
35364;SDS011;21464;48.112;11.530;2023-05-07T12:37:58;4.15;;;3.85;;
35364;SDS011;21464;48.112;11.530;2023-05-07T12:40:39;3.83;;;3.53;;
35364;SDS011;21464;48.112;11.530;2023-05-07T12:43:16;4.28;;;3.97;;
35364;SDS011;21464;48.112;11.530;2023-05-07T12:45:44;3.65;;;3.35;;
35364;SDS011;21464;48.112;11.530;2023-05-07T12:48:11;3.88;;;3.15;;
35364;SDS011;21464;48.112;11.530;2023-05-07T12:50:37;3.85;;;2.90;;
35364;SDS011;21464;48.112;11.530;2023-05-07T12:53:04;2.70;;;2.60;;
35364;SDS011;21464;48.112;11.530;2023-05-07T12:55:32;3.55;;;3.13;;
35364;SDS011;21464;48.112;11.530;2023-05-07T12:58:00;3.38;;;3.10;;
35364;SDS011;21464;48.112;11.530;2023-05-07T13:00:33;3.17;;;2.97;;
35364;SDS011;21464;48.112;11.530;2023-05-07T13:03:00;5.40;;;4.47;;
35364;SDS011;21464;48.112;11.530;2023-05-07T13:05:26;4.93;;;4.53;;
35364;SDS011;21464;48.112;11.530;2023-05-07T13:07:55;10.00;;;7.22;;
35364;SDS011;21464;48.112;11.530;2023-05-07T13:10:22;6.22;;;4.57;;
35364;SDS011;21464;48.112;11.530;2023-05-07T13:12:49;9.57;;;7.60;;
35364;SDS011;21464;48.112;11.530;2023-05-07T13:15:16;5.70;;;5.13;;
35364;SDS011;21464;48.112;11.530;2023-05-07T13:17:43;4.35;;;3.97;;
35364;SDS011;21464;48.112;11.530;2023-05-07T13:20:10;6.07;;;5.35;;
35364;SDS011;21464;48.112;11.530;2023-05-07T13:22:37;5.57;;;3.45;;
35364;SDS011;21464;48.112;11.530;2023-05-07T13:25:03;3.50;;;3.20;;
35364;SDS011;21464;48.112;11.530;2023-05-07T13:27:30;2.95;;;2.53;;
35364;SDS011;21464;48.112;11.530;2023-05-07T13:30:05;3.08;;;2.78;;
35364;SDS011;21464;48.112;11.530;2023-05-07T13:32:32;2.42;;;2.17;;
35364;SDS011;21464;48.112;11.530;2023-05-07T13:34:58;2.50;;;2.30;;
35364;SDS011;21464;48.112;11.530;2023-05-07T13:37:25;2.10;;;1.90;;
35364;SDS011;21464;48.112;11.530;2023-05-07T13:39:51;1.80;;;1.70;;
35364;SDS011;21464;48.112;11.530;2023-05-07T13:42:17;2.28;;;1.80;;
35364;SDS011;21464;48.112;11.530;2023-05-07T13:44:45;2.22;;;2.13;;
35364;SDS011;21464;48.112;11.530;2023-05-07T13:47:12;2.40;;;2.20;;
35364;SDS011;21464;48.112;11.530;2023-05-07T13:49:39;1.95;;;1.80;;
35364;SDS011;21464;48.112;11.530;2023-05-07T13:52:05;2.67;;;2.40;;
35364;SDS011;21464;48.112;11.530;2023-05-07T13:54:31;2.40;;;1.70;;
35364;SDS011;21464;48.112;11.530;2023-05-07T13:56:58;2.30;;;2.10;;
35364;SDS011;21464;48.112;11.530;2023-05-07T13:59:24;2.08;;;1.88;;
35364;SDS011;21464;48.112;11.530;2023-05-07T14:01:51;3.70;;;1.92;;
35364;SDS011;21464;48.112;11.530;2023-05-07T14:04:17;1.70;;;1.60;;
35364;SDS011;21464;48.112;11.530;2023-05-07T14:06:43;2.42;;;1.83;;
35364;SDS011;21464;48.112;11.530;2023-05-07T14:09:10;2.00;;;1.90;;
35364;SDS011;21464;48.112;11.530;2023-05-07T14:11:39;2.72;;;1.80;;
35364;SDS011;21464;48.112;11.530;2023-05-07T14:14:05;1.80;;;1.70;;
35364;SDS011;21464;48.112;11.530;2023-05-07T14:16:32;2.45;;;2.03;;
35364;SDS011;21464;48.112;11.530;2023-05-07T14:18:58;2.67;;;2.30;;
35364;SDS011;21464;48.112;11.530;2023-05-07T14:21:25;3.17;;;2.90;;
35364;SDS011;21464;48.112;11.530;2023-05-07T14:23:52;2.38;;;2.20;;
35364;SDS011;21464;48.112;11.530;2023-05-07T14:26:18;2.08;;;1.98;;
35364;SDS011;21464;48.112;11.530;2023-05-07T14:28:45;2.70;;;2.40;;
35364;SDS011;21464;48.112;11.530;2023-05-07T14:31:12;3.03;;;2.20;;
35364;SDS011;21464;48.112;11.530;2023-05-07T14:33:38;2.50;;;2.30;;
35364;SDS011;21464;48.112;11.530;2023-05-07T14:36:05;2.00;;;1.90;;
35364;SDS011;21464;48.112;11.530;2023-05-07T14:38:32;2.60;;;2.40;;
35364;SDS011;21464;48.112;11.530;2023-05-07T14:40:58;4.30;;;3.58;;
35364;SDS011;21464;48.112;11.530;2023-05-07T14:43:25;3.08;;;2.70;;
35364;SDS011;21464;48.112;11.530;2023-05-07T14:45:51;7.10;;;5.57;;
35364;SDS011;21464;48.112;11.530;2023-05-07T14:48:18;4.85;;;4.45;;
35364;SDS011;21464;48.112;11.530;2023-05-07T14:50:46;6.03;;;5.53;;
35364;SDS011;21464;48.112;11.530;2023-05-07T14:53:14;5.13;;;4.00;;
35364;SDS011;21464;48.112;11.530;2023-05-07T14:55:40;3.80;;;3.50;;
35364;SDS011;21464;48.112;11.530;2023-05-07T14:58:07;4.68;;;4.20;;
35364;SDS011;21464;48.112;11.530;2023-05-07T15:00:33;5.28;;;4.00;;
35364;SDS011;21464;48.112;11.530;2023-05-07T15:03:07;4.28;;;3.53;;
35364;SDS011;21464;48.112;11.530;2023-05-07T15:05:34;3.88;;;3.58;;
35364;SDS011;21464;48.112;11.530;2023-05-07T15:08:02;5.88;;;5.35;;